sensor_id;sensor_type;location;lat;lon;timestamp;temperature;humidity
20732;DHT22;10527;52.124;5.196;2022-08-19T00:02:09;20.70;99.90
20732;DHT22;10527;52.124;5.196;2022-08-19T00:04:40;20.60;99.90
20732;DHT22;10527;52.124;5.196;2022-08-19T00:07:07;20.70;99.90
20732;DHT22;10527;52.124;5.196;2022-08-19T00:09:36;20.60;99.90
20732;DHT22;10527;52.124;5.196;2022-08-19T00:12:03;20.60;99.90
20732;DHT22;10527;52.124;5.196;2022-08-19T00:14:31;20.60;99.90
20732;DHT22;10527;52.124;5.196;2022-08-19T00:16:59;20.60;99.90
20732;DHT22;10527;52.124;5.196;2022-08-19T00:19:26;20.60;99.90
20732;DHT22;10527;52.124;5.196;2022-08-19T00:21:53;20.50;99.90
20732;DHT22;10527;52.124;5.196;2022-08-19T00:24:22;20.50;99.90
20732;DHT22;10527;52.124;5.196;2022-08-19T00:26:50;20.50;99.90
20732;DHT22;10527;52.124;5.196;2022-08-19T00:29:20;20.50;99.90
20732;DHT22;10527;52.124;5.196;2022-08-19T00:31:47;20.50;99.90
20732;DHT22;10527;52.124;5.196;2022-08-19T00:34:17;20.40;99.90
20732;DHT22;10527;52.124;5.196;2022-08-19T00:36:44;20.40;99.90
20732;DHT22;10527;52.124;5.196;2022-08-19T00:39:12;20.40;99.90
20732;DHT22;10527;52.124;5.196;2022-08-19T00:41:40;20.40;99.90
20732;DHT22;10527;52.124;5.196;2022-08-19T00:44:13;20.40;99.90
20732;DHT22;10527;52.124;5.196;2022-08-19T00:46:49;20.30;99.90
20732;DHT22;10527;52.124;5.196;2022-08-19T00:52:00;20.20;99.90
20732;DHT22;10527;52.124;5.196;2022-08-19T00:54:32;20.20;99.90
20732;DHT22;10527;52.124;5.196;2022-08-19T00:57:09;20.20;99.90
20732;DHT22;10527;52.124;5.196;2022-08-19T00:59:43;20.20;99.90
20732;DHT22;10527;52.124;5.196;2022-08-19T01:02:29;20.20;99.90
20732;DHT22;10527;52.124;5.196;2022-08-19T01:04:58;20.10;99.90
20732;DHT22;10527;52.124;5.196;2022-08-19T01:07:28;20.00;99.90
20732;DHT22;10527;52.124;5.196;2022-08-19T01:10:09;20.00;99.90
20732;DHT22;10527;52.124;5.196;2022-08-19T01:12:40;19.90;99.90
20732;DHT22;10527;52.124;5.196;2022-08-19T01:15:10;19.90;99.90
20732;DHT22;10527;52.124;5.196;2022-08-19T01:17:40;19.90;99.90
20732;DHT22;10527;52.124;5.196;2022-08-19T01:20:14;19.90;99.90
20732;DHT22;10527;52.124;5.196;2022-08-19T01:22:45;19.90;99.90
20732;DHT22;10527;52.124;5.196;2022-08-19T01:25:17;19.90;99.90
20732;DHT22;10527;52.124;5.196;2022-08-19T01:27:48;19.80;99.90
20732;DHT22;10527;52.124;5.196;2022-08-19T01:30:29;19.80;99.90
20732;DHT22;10527;52.124;5.196;2022-08-19T01:33:01;19.80;99.90
20732;DHT22;10527;52.124;5.196;2022-08-19T01:35:32;19.80;99.90
20732;DHT22;10527;52.124;5.196;2022-08-19T01:38:02;19.80;99.90
20732;DHT22;10527;52.124;5.196;2022-08-19T01:40:39;19.70;99.90
20732;DHT22;10527;52.124;5.196;2022-08-19T01:43:06;19.70;99.90
20732;DHT22;10527;52.124;5.196;2022-08-19T01:45:34;19.70;99.90
20732;DHT22;10527;52.124;5.196;2022-08-19T01:48:03;19.70;99.90
20732;DHT22;10527;52.124;5.196;2022-08-19T01:50:32;19.60;99.90
20732;DHT22;10527;52.124;5.196;2022-08-19T01:53:02;19.60;99.90
20732;DHT22;10527;52.124;5.196;2022-08-19T01:55:36;19.60;99.90
20732;DHT22;10527;52.124;5.196;2022-08-19T01:58:12;19.60;99.90
20732;DHT22;10527;52.124;5.196;2022-08-19T02:00:47;19.60;99.90
20732;DHT22;10527;52.124;5.196;2022-08-19T02:03:15;19.60;99.90
20732;DHT22;10527;52.124;5.196;2022-08-19T02:05:45;19.50;99.90
20732;DHT22;10527;52.124;5.196;2022-08-19T02:08:12;19.50;99.90
20732;DHT22;10527;52.124;5.196;2022-08-19T02:10:42;19.40;99.90
20732;DHT22;10527;52.124;5.196;2022-08-19T02:13:11;19.40;99.90
20732;DHT22;10527;52.124;5.196;2022-08-19T02:15:41;19.40;99.90
20732;DHT22;10527;52.124;5.196;2022-08-19T02:18:08;19.20;99.90
20732;DHT22;10527;52.124;5.196;2022-08-19T02:20:36;19.40;99.90
20732;DHT22;10527;52.124;5.196;2022-08-19T02:23:05;19.40;99.90
20732;DHT22;10527;52.124;5.196;2022-08-19T02:25:42;19.30;99.90
20732;DHT22;10527;52.124;5.196;2022-08-19T02:28:11;19.30;99.90
20732;DHT22;10527;52.124;5.196;2022-08-19T02:30:45;19.20;99.90
20732;DHT22;10527;52.124;5.196;2022-08-19T02:33:15;19.30;99.90
20732;DHT22;10527;52.124;5.196;2022-08-19T02:35:44;19.20;99.90
20732;DHT22;10527;52.124;5.196;2022-08-19T02:38:13;19.20;99.90
20732;DHT22;10527;52.124;5.196;2022-08-19T02:40:57;19.20;99.90
20732;DHT22;10527;52.124;5.196;2022-08-19T02:43:28;19.20;99.90
20732;DHT22;10527;52.124;5.196;2022-08-19T02:46:00;19.20;99.90
20732;DHT22;10527;52.124;5.196;2022-08-19T02:48:28;19.20;99.90
20732;DHT22;10527;52.124;5.196;2022-08-19T02:50:55;19.10;99.90
20732;DHT22;10527;52.124;5.196;2022-08-19T02:53:24;19.10;99.90
20732;DHT22;10527;52.124;5.196;2022-08-19T02:55:53;19.10;99.90
20732;DHT22;10527;52.124;5.196;2022-08-19T02:58:20;19.10;99.90
20732;DHT22;10527;52.124;5.196;2022-08-19T03:00:51;19.10;99.90
20732;DHT22;10527;52.124;5.196;2022-08-19T03:03:20;19.00;99.90
20732;DHT22;10527;52.124;5.196;2022-08-19T03:05:47;18.90;99.90
20732;DHT22;10527;52.124;5.196;2022-08-19T03:08:23;18.90;99.90
20732;DHT22;10527;52.124;5.196;2022-08-19T03:10:50;18.90;99.90
20732;DHT22;10527;52.124;5.196;2022-08-19T03:13:19;19.00;99.90
20732;DHT22;10527;52.124;5.196;2022-08-19T03:15:47;19.00;99.90
20732;DHT22;10527;52.124;5.196;2022-08-19T03:18:15;18.90;99.90
20732;DHT22;10527;52.124;5.196;2022-08-19T03:20:46;18.90;99.90
20732;DHT22;10527;52.124;5.196;2022-08-19T03:23:16;18.80;99.90
20732;DHT22;10527;52.124;5.196;2022-08-19T03:25:45;18.70;99.90
20732;DHT22;10527;52.124;5.196;2022-08-19T03:28:34;18.70;99.90
20732;DHT22;10527;52.124;5.196;2022-08-19T03:31:05;18.70;99.90
20732;DHT22;10527;52.124;5.196;2022-08-19T03:33:55;18.70;99.90
20732;DHT22;10527;52.124;5.196;2022-08-19T03:36:24;18.70;99.90
20732;DHT22;10527;52.124;5.196;2022-08-19T03:38:59;18.80;99.90
20732;DHT22;10527;52.124;5.196;2022-08-19T03:41:33;18.60;99.90
20732;DHT22;10527;52.124;5.196;2022-08-19T03:44:12;18.60;99.90
20732;DHT22;10527;52.124;5.196;2022-08-19T03:46:45;18.50;99.90
20732;DHT22;10527;52.124;5.196;2022-08-19T03:49:22;18.60;99.90
20732;DHT22;10527;52.124;5.196;2022-08-19T03:51:55;18.60;99.90
20732;DHT22;10527;52.124;5.196;2022-08-19T03:54:25;18.60;99.90
20732;DHT22;10527;52.124;5.196;2022-08-19T03:56:54;18.60;99.90
20732;DHT22;10527;52.124;5.196;2022-08-19T03:59:29;18.60;99.90
20732;DHT22;10527;52.124;5.196;2022-08-19T04:02:01;18.60;99.90
20732;DHT22;10527;52.124;5.196;2022-08-19T04:04:31;18.60;99.90
20732;DHT22;10527;52.124;5.196;2022-08-19T04:06:58;18.50;99.90
20732;DHT22;10527;52.124;5.196;2022-08-19T04:09:25;18.60;99.90
20732;DHT22;10527;52.124;5.196;2022-08-19T04:11:54;18.50;99.90
20732;DHT22;10527;52.124;5.196;2022-08-19T04:14:25;18.50;99.90
20732;DHT22;10527;52.124;5.196;2022-08-19T04:16:58;18.50;99.90
20732;DHT22;10527;52.124;5.196;2022-08-19T04:19:28;18.40;99.90
20732;DHT22;10527;52.124;5.196;2022-08-19T04:21:56;18.30;99.90
20732;DHT22;10527;52.124;5.196;2022-08-19T04:24:25;18.30;99.90
20732;DHT22;10527;52.124;5.196;2022-08-19T04:26:52;18.30;99.90
20732;DHT22;10527;52.124;5.196;2022-08-19T04:29:24;18.40;99.90
20732;DHT22;10527;52.124;5.196;2022-08-19T04:31:56;18.40;99.90
20732;DHT22;10527;52.124;5.196;2022-08-19T04:34:27;18.40;99.90
20732;DHT22;10527;52.124;5.196;2022-08-19T04:36:58;18.40;99.90
20732;DHT22;10527;52.124;5.196;2022-08-19T04:39:28;18.40;99.90
20732;DHT22;10527;52.124;5.196;2022-08-19T04:42:17;18.30;99.90
20732;DHT22;10527;52.124;5.196;2022-08-19T04:45:09;18.30;99.90
20732;DHT22;10527;52.124;5.196;2022-08-19T04:47:41;18.30;99.90
20732;DHT22;10527;52.124;5.196;2022-08-19T04:50:25;18.30;99.90
20732;DHT22;10527;52.124;5.196;2022-08-19T04:52:53;18.20;99.90
20732;DHT22;10527;52.124;5.196;2022-08-19T04:55:21;18.10;99.90
20732;DHT22;10527;52.124;5.196;2022-08-19T04:57:51;18.10;99.90
20732;DHT22;10527;52.124;5.196;2022-08-19T05:00:18;18.20;99.90
20732;DHT22;10527;52.124;5.196;2022-08-19T05:02:45;18.10;99.90
20732;DHT22;10527;52.124;5.196;2022-08-19T05:05:12;18.20;99.90
20732;DHT22;10527;52.124;5.196;2022-08-19T05:07:40;18.20;99.90
20732;DHT22;10527;52.124;5.196;2022-08-19T05:10:07;18.20;99.90
20732;DHT22;10527;52.124;5.196;2022-08-19T05:12:35;18.20;99.90
20732;DHT22;10527;52.124;5.196;2022-08-19T05:15:05;18.30;99.90
20732;DHT22;10527;52.124;5.196;2022-08-19T05:17:34;18.30;99.90
20732;DHT22;10527;52.124;5.196;2022-08-19T05:20:06;18.20;99.90
20732;DHT22;10527;52.124;5.196;2022-08-19T05:23:06;18.20;99.90
20732;DHT22;10527;52.124;5.196;2022-08-19T05:25:39;18.30;99.90
20732;DHT22;10527;52.124;5.196;2022-08-19T05:28:09;18.30;99.90
20732;DHT22;10527;52.124;5.196;2022-08-19T05:30:39;18.40;99.90
20732;DHT22;10527;52.124;5.196;2022-08-19T05:33:13;18.40;99.90
20732;DHT22;10527;52.124;5.196;2022-08-19T05:35:40;18.40;99.90
20732;DHT22;10527;52.124;5.196;2022-08-19T05:38:07;18.40;99.90
20732;DHT22;10527;52.124;5.196;2022-08-19T05:40:35;18.50;99.90
20732;DHT22;10527;52.124;5.196;2022-08-19T05:43:04;18.50;99.90
20732;DHT22;10527;52.124;5.196;2022-08-19T05:45:38;18.60;99.90
20732;DHT22;10527;52.124;5.196;2022-08-19T05:48:06;18.50;99.90
20732;DHT22;10527;52.124;5.196;2022-08-19T05:50:34;18.60;99.90
20732;DHT22;10527;52.124;5.196;2022-08-19T05:53:02;18.60;99.90
20732;DHT22;10527;52.124;5.196;2022-08-19T05:55:28;18.60;99.90
20732;DHT22;10527;52.124;5.196;2022-08-19T05:57:55;18.60;99.90
20732;DHT22;10527;52.124;5.196;2022-08-19T06:00:22;18.70;99.90
20732;DHT22;10527;52.124;5.196;2022-08-19T06:02:50;18.80;99.90
20732;DHT22;10527;52.124;5.196;2022-08-19T06:05:17;18.90;99.90
20732;DHT22;10527;52.124;5.196;2022-08-19T06:07:44;18.80;99.90
20732;DHT22;10527;52.124;5.196;2022-08-19T06:10:11;18.90;99.90
20732;DHT22;10527;52.124;5.196;2022-08-19T06:12:40;18.90;99.90
20732;DHT22;10527;52.124;5.196;2022-08-19T06:15:10;18.90;99.90
20732;DHT22;10527;52.124;5.196;2022-08-19T06:17:42;19.00;99.90
20732;DHT22;10527;52.124;5.196;2022-08-19T06:20:14;19.00;99.90
20732;DHT22;10527;52.124;5.196;2022-08-19T06:22:50;19.00;99.90
20732;DHT22;10527;52.124;5.196;2022-08-19T06:25:18;19.00;99.90
20732;DHT22;10527;52.124;5.196;2022-08-19T06:27:45;18.90;99.90
20732;DHT22;10527;52.124;5.196;2022-08-19T06:30:35;18.70;99.90
20732;DHT22;10527;52.124;5.196;2022-08-19T06:33:04;18.70;99.90
20732;DHT22;10527;52.124;5.196;2022-08-19T06:35:40;18.60;99.90
20732;DHT22;10527;52.124;5.196;2022-08-19T06:38:09;18.70;99.90
20732;DHT22;10527;52.124;5.196;2022-08-19T06:40:37;18.60;99.90
20732;DHT22;10527;52.124;5.196;2022-08-19T06:43:04;18.60;99.90
20732;DHT22;10527;52.124;5.196;2022-08-19T06:45:36;18.70;99.90
20732;DHT22;10527;52.124;5.196;2022-08-19T06:48:06;18.80;99.90
20732;DHT22;10527;52.124;5.196;2022-08-19T06:50:35;18.70;99.90
20732;DHT22;10527;52.124;5.196;2022-08-19T06:53:06;18.80;99.90
20732;DHT22;10527;52.124;5.196;2022-08-19T06:55:33;18.80;99.90
20732;DHT22;10527;52.124;5.196;2022-08-19T06:58:03;18.90;99.90
20732;DHT22;10527;52.124;5.196;2022-08-19T07:00:30;19.00;99.90
20732;DHT22;10527;52.124;5.196;2022-08-19T07:02:58;19.00;99.90
20732;DHT22;10527;52.124;5.196;2022-08-19T07:05:38;19.10;99.90
20732;DHT22;10527;52.124;5.196;2022-08-19T07:08:13;19.20;99.90
20732;DHT22;10527;52.124;5.196;2022-08-19T07:10:43;19.20;99.90
20732;DHT22;10527;52.124;5.196;2022-08-19T07:13:11;19.40;99.90
20732;DHT22;10527;52.124;5.196;2022-08-19T07:15:38;19.40;99.90
20732;DHT22;10527;52.124;5.196;2022-08-19T07:18:08;19.50;99.90
20732;DHT22;10527;52.124;5.196;2022-08-19T07:20:37;19.60;99.90
20732;DHT22;10527;52.124;5.196;2022-08-19T07:23:07;19.50;99.90
20732;DHT22;10527;52.124;5.196;2022-08-19T07:25:42;19.50;99.90
20732;DHT22;10527;52.124;5.196;2022-08-19T07:28:10;19.50;99.90
20732;DHT22;10527;52.124;5.196;2022-08-19T07:30:50;19.50;99.90
20732;DHT22;10527;52.124;5.196;2022-08-19T07:33:18;19.60;99.90
20732;DHT22;10527;52.124;5.196;2022-08-19T07:35:45;19.60;99.90
20732;DHT22;10527;52.124;5.196;2022-08-19T07:38:12;19.70;99.90
20732;DHT22;10527;52.124;5.196;2022-08-19T07:40:39;19.80;99.90
20732;DHT22;10527;52.124;5.196;2022-08-19T07:43:07;19.80;99.90
20732;DHT22;10527;52.124;5.196;2022-08-19T07:45:39;19.80;99.90
20732;DHT22;10527;52.124;5.196;2022-08-19T07:48:06;19.70;99.90
20732;DHT22;10527;52.124;5.196;2022-08-19T07:50:33;19.80;99.90
20732;DHT22;10527;52.124;5.196;2022-08-19T07:53:01;19.80;99.90
20732;DHT22;10527;52.124;5.196;2022-08-19T07:55:27;19.90;99.90
20732;DHT22;10527;52.124;5.196;2022-08-19T07:58:09;20.00;99.90
20732;DHT22;10527;52.124;5.196;2022-08-19T08:00:37;20.00;99.90
20732;DHT22;10527;52.124;5.196;2022-08-19T08:03:04;20.00;99.90
20732;DHT22;10527;52.124;5.196;2022-08-19T08:05:31;20.10;99.90
20732;DHT22;10527;52.124;5.196;2022-08-19T08:08:17;20.20;99.90
20732;DHT22;10527;52.124;5.196;2022-08-19T08:11:09;20.30;99.90
20732;DHT22;10527;52.124;5.196;2022-08-19T08:13:41;20.30;99.90
20732;DHT22;10527;52.124;5.196;2022-08-19T08:16:08;20.30;99.90
20732;DHT22;10527;52.124;5.196;2022-08-19T08:18:40;20.50;99.90
20732;DHT22;10527;52.124;5.196;2022-08-19T08:21:08;20.60;99.90
20732;DHT22;10527;52.124;5.196;2022-08-19T08:23:35;20.70;99.90
20732;DHT22;10527;52.124;5.196;2022-08-19T08:26:05;20.80;99.90
20732;DHT22;10527;52.124;5.196;2022-08-19T08:28:32;20.80;99.90
20732;DHT22;10527;52.124;5.196;2022-08-19T08:30:59;20.90;99.90
20732;DHT22;10527;52.124;5.196;2022-08-19T08:33:28;20.90;99.90
20732;DHT22;10527;52.124;5.196;2022-08-19T08:36:07;21.10;99.90
20732;DHT22;10527;52.124;5.196;2022-08-19T08:38:36;21.20;99.90
20732;DHT22;10527;52.124;5.196;2022-08-19T08:43:49;21.70;99.90
20732;DHT22;10527;52.124;5.196;2022-08-19T08:46:33;21.80;99.90
20732;DHT22;10527;52.124;5.196;2022-08-19T08:51:50;22.40;99.90
20732;DHT22;10527;52.124;5.196;2022-08-19T08:54:30;22.60;99.90
20732;DHT22;10527;52.124;5.196;2022-08-19T08:57:05;22.70;99.90
20732;DHT22;10527;52.124;5.196;2022-08-19T08:59:40;22.70;99.90
20732;DHT22;10527;52.124;5.196;2022-08-19T09:02:09;22.80;99.90
20732;DHT22;10527;52.124;5.196;2022-08-19T09:04:37;22.70;99.90
20732;DHT22;10527;52.124;5.196;2022-08-19T09:10:39;22.50;99.90
20732;DHT22;10527;52.124;5.196;2022-08-19T09:13:31;22.40;99.90
20732;DHT22;10527;52.124;5.196;2022-08-19T09:16:28;22.30;99.90
20732;DHT22;10527;52.124;5.196;2022-08-19T09:19:05;22.30;99.90
20732;DHT22;10527;52.124;5.196;2022-08-19T09:21:33;22.40;99.90
20732;DHT22;10527;52.124;5.196;2022-08-19T09:24:06;22.40;99.90
20732;DHT22;10527;52.124;5.196;2022-08-19T09:26:33;22.50;99.90
20732;DHT22;10527;52.124;5.196;2022-08-19T09:29:18;22.60;99.90
20732;DHT22;10527;52.124;5.196;2022-08-19T09:31:48;22.60;99.90
20732;DHT22;10527;52.124;5.196;2022-08-19T09:34:16;22.70;99.90
20732;DHT22;10527;52.124;5.196;2022-08-19T09:36:48;22.80;99.90
20732;DHT22;10527;52.124;5.196;2022-08-19T09:39:20;22.80;99.90
20732;DHT22;10527;52.124;5.196;2022-08-19T09:41:48;22.90;99.90
20732;DHT22;10527;52.124;5.196;2022-08-19T09:44:16;22.80;99.90
20732;DHT22;10527;52.124;5.196;2022-08-19T09:46:44;22.70;99.90
20732;DHT22;10527;52.124;5.196;2022-08-19T09:49:15;22.90;99.90
20732;DHT22;10527;52.124;5.196;2022-08-19T09:51:52;23.00;99.90
20732;DHT22;10527;52.124;5.196;2022-08-19T09:54:23;22.90;99.90
20732;DHT22;10527;52.124;5.196;2022-08-19T09:56:52;22.80;99.90
20732;DHT22;10527;52.124;5.196;2022-08-19T09:59:20;22.80;99.90
20732;DHT22;10527;52.124;5.196;2022-08-19T10:01:47;22.90;99.90
20732;DHT22;10527;52.124;5.196;2022-08-19T10:04:15;22.90;99.90
20732;DHT22;10527;52.124;5.196;2022-08-19T10:06:49;23.00;99.90
20732;DHT22;10527;52.124;5.196;2022-08-19T10:09:19;23.10;99.90
20732;DHT22;10527;52.124;5.196;2022-08-19T10:12:00;23.30;99.90
20732;DHT22;10527;52.124;5.196;2022-08-19T10:14:29;23.80;99.90
20732;DHT22;10527;52.124;5.196;2022-08-19T10:16:57;23.80;99.90
20732;DHT22;10527;52.124;5.196;2022-08-19T10:19:26;23.80;99.90
20732;DHT22;10527;52.124;5.196;2022-08-19T10:21:55;23.70;99.90
20732;DHT22;10527;52.124;5.196;2022-08-19T10:24:25;23.70;99.90
20732;DHT22;10527;52.124;5.196;2022-08-19T10:26:53;23.60;99.90
20732;DHT22;10527;52.124;5.196;2022-08-19T10:29:22;23.60;99.90
20732;DHT22;10527;52.124;5.196;2022-08-19T10:32:04;23.70;99.90
20732;DHT22;10527;52.124;5.196;2022-08-19T10:34:37;24.10;99.90
20732;DHT22;10527;52.124;5.196;2022-08-19T10:37:16;24.10;99.90
20732;DHT22;10527;52.124;5.196;2022-08-19T10:39:54;24.30;99.90
20732;DHT22;10527;52.124;5.196;2022-08-19T10:42:21;24.60;99.90
20732;DHT22;10527;52.124;5.196;2022-08-19T10:44:48;25.00;99.90
20732;DHT22;10527;52.124;5.196;2022-08-19T10:47:17;25.00;99.90
20732;DHT22;10527;52.124;5.196;2022-08-19T10:49:55;24.80;99.90
20732;DHT22;10527;52.124;5.196;2022-08-19T10:52:43;24.80;99.90
20732;DHT22;10527;52.124;5.196;2022-08-19T10:55:21;24.60;99.90
20732;DHT22;10527;52.124;5.196;2022-08-19T10:58:19;24.50;99.90
20732;DHT22;10527;52.124;5.196;2022-08-19T11:00:56;24.30;99.90
20732;DHT22;10527;52.124;5.196;2022-08-19T11:03:25;24.20;99.90
20732;DHT22;10527;52.124;5.196;2022-08-19T11:06:05;24.30;99.90
20732;DHT22;10527;52.124;5.196;2022-08-19T11:08:34;24.50;99.90
20732;DHT22;10527;52.124;5.196;2022-08-19T11:11:05;25.00;99.90
20732;DHT22;10527;52.124;5.196;2022-08-19T11:13:35;25.00;99.90
20732;DHT22;10527;52.124;5.196;2022-08-19T11:16:11;25.10;99.90
20732;DHT22;10527;52.124;5.196;2022-08-19T11:18:43;25.20;99.90
20732;DHT22;10527;52.124;5.196;2022-08-19T11:21:27;25.10;99.90
20732;DHT22;10527;52.124;5.196;2022-08-19T11:24:02;25.10;99.90
20732;DHT22;10527;52.124;5.196;2022-08-19T11:26:33;25.10;99.90
20732;DHT22;10527;52.124;5.196;2022-08-19T11:29:02;25.00;99.90
20732;DHT22;10527;52.124;5.196;2022-08-19T11:31:32;25.10;99.90
20732;DHT22;10527;52.124;5.196;2022-08-19T11:34:04;25.00;99.90
20732;DHT22;10527;52.124;5.196;2022-08-19T11:36:33;24.90;99.90
20732;DHT22;10527;52.124;5.196;2022-08-19T11:39:05;24.90;99.90
20732;DHT22;10527;52.124;5.196;2022-08-19T11:41:36;24.60;99.90
20732;DHT22;10527;52.124;5.196;2022-08-19T11:44:03;24.30;99.90
20732;DHT22;10527;52.124;5.196;2022-08-19T11:46:31;24.20;99.90
20732;DHT22;10527;52.124;5.196;2022-08-19T11:48:59;24.10;99.90
20732;DHT22;10527;52.124;5.196;2022-08-19T11:51:27;24.00;99.90
20732;DHT22;10527;52.124;5.196;2022-08-19T11:53:57;24.10;99.90
20732;DHT22;10527;52.124;5.196;2022-08-19T11:56:26;24.20;99.90
20732;DHT22;10527;52.124;5.196;2022-08-19T11:58:55;24.40;99.90
20732;DHT22;10527;52.124;5.196;2022-08-19T12:01:26;24.40;99.90
20732;DHT22;10527;52.124;5.196;2022-08-19T12:03:54;24.20;99.90
20732;DHT22;10527;52.124;5.196;2022-08-19T12:06:29;24.10;99.90
20732;DHT22;10527;52.124;5.196;2022-08-19T12:09:00;23.90;99.90
20732;DHT22;10527;52.124;5.196;2022-08-19T12:11:31;23.80;99.90
20732;DHT22;10527;52.124;5.196;2022-08-19T12:14:00;23.60;99.90
20732;DHT22;10527;52.124;5.196;2022-08-19T12:16:29;23.50;99.90
20732;DHT22;10527;52.124;5.196;2022-08-19T12:18:59;23.50;99.90
20732;DHT22;10527;52.124;5.196;2022-08-19T12:21:32;23.60;99.90
20732;DHT22;10527;52.124;5.196;2022-08-19T12:24:02;23.70;99.90
20732;DHT22;10527;52.124;5.196;2022-08-19T12:26:32;23.90;99.90
20732;DHT22;10527;52.124;5.196;2022-08-19T12:29:02;24.00;99.90
20732;DHT22;10527;52.124;5.196;2022-08-19T12:31:29;24.00;99.90
20732;DHT22;10527;52.124;5.196;2022-08-19T12:33:56;24.00;99.90
20732;DHT22;10527;52.124;5.196;2022-08-19T12:36:24;24.10;99.90
20732;DHT22;10527;52.124;5.196;2022-08-19T12:38:52;24.20;99.90
20732;DHT22;10527;52.124;5.196;2022-08-19T12:41:20;24.30;99.90
20732;DHT22;10527;52.124;5.196;2022-08-19T12:43:49;24.50;99.90
20732;DHT22;10527;52.124;5.196;2022-08-19T12:46:18;24.50;99.90
20732;DHT22;10527;52.124;5.196;2022-08-19T12:48:49;24.50;99.90
20732;DHT22;10527;52.124;5.196;2022-08-19T12:51:21;24.20;99.90
20732;DHT22;10527;52.124;5.196;2022-08-19T12:53:48;23.90;99.90
20732;DHT22;10527;52.124;5.196;2022-08-19T12:56:16;23.90;99.90
20732;DHT22;10527;52.124;5.196;2022-08-19T12:58:49;23.70;99.90
20732;DHT22;10527;52.124;5.196;2022-08-19T13:01:20;23.50;99.90
20732;DHT22;10527;52.124;5.196;2022-08-19T13:03:50;23.30;99.90
20732;DHT22;10527;52.124;5.196;2022-08-19T13:06:19;23.20;99.90
20732;DHT22;10527;52.124;5.196;2022-08-19T13:08:46;23.10;99.90
20732;DHT22;10527;52.124;5.196;2022-08-19T13:11:19;23.10;99.90
20732;DHT22;10527;52.124;5.196;2022-08-19T13:13:48;23.10;99.90
20732;DHT22;10527;52.124;5.196;2022-08-19T13:16:18;23.10;99.90
20732;DHT22;10527;52.124;5.196;2022-08-19T13:18:47;23.20;99.90
20732;DHT22;10527;52.124;5.196;2022-08-19T13:21:14;23.20;99.90
20732;DHT22;10527;52.124;5.196;2022-08-19T13:23:41;23.30;99.90
20732;DHT22;10527;52.124;5.196;2022-08-19T13:26:10;23.30;99.90
20732;DHT22;10527;52.124;5.196;2022-08-19T13:28:39;23.40;99.90
20732;DHT22;10527;52.124;5.196;2022-08-19T13:31:28;23.40;99.90
20732;DHT22;10527;52.124;5.196;2022-08-19T13:34:16;23.30;99.90
20732;DHT22;10527;52.124;5.196;2022-08-19T13:36:46;23.30;99.90
20732;DHT22;10527;52.124;5.196;2022-08-19T13:39:12;23.50;99.90
20732;DHT22;10527;52.124;5.196;2022-08-19T13:41:44;23.40;99.90
20732;DHT22;10527;52.124;5.196;2022-08-19T13:44:18;23.50;99.90
20732;DHT22;10527;52.124;5.196;2022-08-19T13:46:47;23.40;99.90
20732;DHT22;10527;52.124;5.196;2022-08-19T13:49:20;23.40;99.90
20732;DHT22;10527;52.124;5.196;2022-08-19T13:51:49;23.40;99.90
20732;DHT22;10527;52.124;5.196;2022-08-19T13:54:16;23.40;99.90
20732;DHT22;10527;52.124;5.196;2022-08-19T13:56:45;23.40;99.90
20732;DHT22;10527;52.124;5.196;2022-08-19T13:59:12;23.50;99.90
20732;DHT22;10527;52.124;5.196;2022-08-19T14:01:39;23.60;99.90
20732;DHT22;10527;52.124;5.196;2022-08-19T14:04:08;23.60;99.90
20732;DHT22;10527;52.124;5.196;2022-08-19T14:06:35;23.70;99.90
20732;DHT22;10527;52.124;5.196;2022-08-19T14:09:03;23.80;99.90
20732;DHT22;10527;52.124;5.196;2022-08-19T14:11:30;23.90;99.90
20732;DHT22;10527;52.124;5.196;2022-08-19T14:13:57;23.70;99.90
20732;DHT22;10527;52.124;5.196;2022-08-19T14:16:24;23.60;99.90
20732;DHT22;10527;52.124;5.196;2022-08-19T14:18:51;23.60;99.90
20732;DHT22;10527;52.124;5.196;2022-08-19T14:21:21;23.50;99.90
20732;DHT22;10527;52.124;5.196;2022-08-19T14:23:50;23.50;99.90
20732;DHT22;10527;52.124;5.196;2022-08-19T14:26:18;23.60;99.90
20732;DHT22;10527;52.124;5.196;2022-08-19T14:28:46;23.50;99.90
20732;DHT22;10527;52.124;5.196;2022-08-19T14:31:17;23.50;99.90
20732;DHT22;10527;52.124;5.196;2022-08-19T14:33:47;23.30;99.90
20732;DHT22;10527;52.124;5.196;2022-08-19T14:36:14;23.30;99.90
20732;DHT22;10527;52.124;5.196;2022-08-19T14:38:42;23.10;99.90
20732;DHT22;10527;52.124;5.196;2022-08-19T14:41:18;23.20;99.90
20732;DHT22;10527;52.124;5.196;2022-08-19T14:43:51;23.30;99.90
20732;DHT22;10527;52.124;5.196;2022-08-19T14:46:22;23.40;99.90
20732;DHT22;10527;52.124;5.196;2022-08-19T14:48:54;23.50;99.90
20732;DHT22;10527;52.124;5.196;2022-08-19T14:51:23;23.50;99.90
20732;DHT22;10527;52.124;5.196;2022-08-19T14:53:50;23.70;99.90
20732;DHT22;10527;52.124;5.196;2022-08-19T14:56:22;23.60;99.90
20732;DHT22;10527;52.124;5.196;2022-08-19T14:58:51;23.60;99.90
20732;DHT22;10527;52.124;5.196;2022-08-19T15:01:21;23.60;99.90
20732;DHT22;10527;52.124;5.196;2022-08-19T15:03:58;23.70;99.90
20732;DHT22;10527;52.124;5.196;2022-08-19T15:06:25;23.90;99.90
20732;DHT22;10527;52.124;5.196;2022-08-19T15:08:59;24.20;99.90
20732;DHT22;10527;52.124;5.196;2022-08-19T15:11:30;24.20;99.90
20732;DHT22;10527;52.124;5.196;2022-08-19T15:13:59;24.20;99.90
20732;DHT22;10527;52.124;5.196;2022-08-19T15:16:28;24.20;99.90
20732;DHT22;10527;52.124;5.196;2022-08-19T15:18:57;24.10;99.90
20732;DHT22;10527;52.124;5.196;2022-08-19T15:21:29;24.20;99.90
20732;DHT22;10527;52.124;5.196;2022-08-19T15:23:58;24.30;99.90
20732;DHT22;10527;52.124;5.196;2022-08-19T15:26:27;24.20;99.90
20732;DHT22;10527;52.124;5.196;2022-08-19T15:28:59;24.10;99.90
20732;DHT22;10527;52.124;5.196;2022-08-19T15:31:28;24.00;99.90
20732;DHT22;10527;52.124;5.196;2022-08-19T15:33:56;23.80;99.90
20732;DHT22;10527;52.124;5.196;2022-08-19T15:36:24;23.70;99.90
20732;DHT22;10527;52.124;5.196;2022-08-19T15:38:55;23.70;99.90
20732;DHT22;10527;52.124;5.196;2022-08-19T15:41:28;23.70;99.90
20732;DHT22;10527;52.124;5.196;2022-08-19T15:44:03;23.60;99.90
20732;DHT22;10527;52.124;5.196;2022-08-19T15:46:39;23.70;99.90
20732;DHT22;10527;52.124;5.196;2022-08-19T15:49:09;23.70;99.90
20732;DHT22;10527;52.124;5.196;2022-08-19T15:51:39;23.60;99.90
20732;DHT22;10527;52.124;5.196;2022-08-19T15:54:10;23.50;99.90
20732;DHT22;10527;52.124;5.196;2022-08-19T15:56:40;23.50;99.90
20732;DHT22;10527;52.124;5.196;2022-08-19T15:59:37;23.50;99.90
20732;DHT22;10527;52.124;5.196;2022-08-19T16:02:28;23.40;99.90
20732;DHT22;10527;52.124;5.196;2022-08-19T16:05:24;23.50;99.90
20732;DHT22;10527;52.124;5.196;2022-08-19T16:08:10;23.50;99.90